createdAt,value
2019-06-10T00:02:41.423Z,101200.97
2019-06-10T00:08:05.853Z,101192.42
2019-06-10T00:13:31.530Z,101185.41
2019-06-10T00:18:55.945Z,101171.28
2019-06-10T00:24:21.302Z,101187.28
2019-06-10T00:29:45.769Z,101189.20
2019-06-10T00:35:12.155Z,101197.67
2019-06-10T00:40:35.305Z,101193.97
2019-06-10T00:46:00.708Z,101188.45
2019-06-10T00:51:24.829Z,101189.41
2019-06-10T00:56:48.414Z,101173.75
2019-06-10T01:02:14.450Z,101169.74
2019-06-10T01:07:41.218Z,101172.37
2019-06-10T01:13:05.093Z,101151.98
2019-06-10T01:18:35.619Z,101134.88
2019-06-10T01:23:55.306Z,101116.36
2019-06-10T01:29:21.089Z,101114.07
2019-06-10T01:34:44.818Z,101120.91
2019-06-10T01:40:13.122Z,101112.72
2019-06-10T01:45:35.516Z,101090.25
2019-06-10T01:51:01.843Z,101073.30
2019-06-10T01:56:25.792Z,101070.44
2019-06-10T02:02:04.152Z,101079.11
2019-06-10T02:07:31.827Z,101075.92
2019-06-10T02:12:56.360Z,101051.92
2019-06-10T02:18:22.460Z,101020.57
2019-06-10T02:23:47.069Z,101022.73
2019-06-10T02:29:13.180Z,101003.68
2019-06-10T02:34:45.997Z,100993.39
2019-06-10T02:40:04.472Z,100976.53
2019-06-10T02:45:33.681Z,100962.03
2019-06-10T02:51:07.880Z,100967.85
2019-06-10T02:56:36.206Z,100957.98
2019-06-10T03:01:57.700Z,100942.84
2019-06-10T03:07:26.779Z,100933.41
2019-06-10T03:12:48.071Z,100937.44
2019-06-10T03:18:12.913Z,100942.58
2019-06-10T03:23:37.145Z,100948.87
2019-06-10T03:29:02.669Z,100952.91
2019-06-10T03:34:36.165Z,100966.44
2019-06-10T03:39:54.874Z,100971.23
2019-06-10T03:45:21.140Z,100977.36
2019-06-10T03:50:45.755Z,100987.43
2019-06-10T03:56:09.451Z,100993.77
2019-06-10T04:01:35.231Z,101003.36
2019-06-10T04:07:03.572Z,100984.66
2019-06-10T04:12:27.527Z,100952.02
2019-06-10T04:17:53.070Z,100953.78
2019-06-10T04:23:17.736Z,100960.05
2019-06-10T04:28:42.954Z,100967.89
2019-06-10T04:34:06.966Z,100955.33
2019-06-10T04:39:30.636Z,100943.64
2019-06-10T04:44:55.258Z,100947.01
2019-06-10T04:50:27.039Z,100928.02
2019-06-10T04:55:45.227Z,100907.78
2019-06-10T05:01:12.009Z,100901.20
2019-06-10T05:06:35.652Z,100897.36
2019-06-10T05:11:59.755Z,100887.67
2019-06-10T05:17:26.128Z,100891.05
2019-06-10T05:22:50.036Z,100900.27
2019-06-10T05:28:13.971Z,100899.16
2019-06-10T05:33:38.439Z,100901.89
2019-06-10T05:39:03.201Z,100901.97
2019-06-10T05:44:28.450Z,100908.33
2019-06-10T05:49:53.045Z,100906.66
2019-06-10T05:55:17.843Z,100906.78
2019-06-10T06:00:42.894Z,100902.06
2019-06-10T06:06:07.368Z,100892.72
2019-06-10T06:11:34.023Z,100882.43
2019-06-10T06:16:57.326Z,100886.66
2019-06-10T06:22:22.195Z,100885.71
2019-06-10T06:27:45.796Z,100885.69
2019-06-10T06:33:09.726Z,100879.15
2019-06-10T06:38:35.353Z,100871.35
2019-06-10T06:43:59.074Z,100875.62
2019-06-10T06:49:23.499Z,100874.91
2019-06-10T06:54:47.096Z,100852.41
2019-06-10T07:00:37.437Z,100847.89
2019-06-10T07:05:41.052Z,100835.35
2019-06-10T07:11:05.221Z,100832.92
2019-06-10T07:16:31.909Z,100828.62
2019-06-10T07:22:08.865Z,100830.81
2019-06-10T07:27:22.628Z,100826.66
2019-06-10T07:32:47.391Z,100828.92
2019-06-10T07:38:12.442Z,100828.92
2019-06-10T07:43:40.853Z,100822.08
2019-06-10T07:49:03.386Z,100832.75
2019-06-10T07:54:27.986Z,100830.52
2019-06-10T07:59:52.748Z,100827.52
2019-06-10T08:05:17.627Z,100835.34
2019-06-10T08:10:44.854Z,100831.11
2019-06-10T08:16:08.359Z,100822.23
2019-06-10T08:21:32.708Z,100825.58
2019-06-10T08:26:57.313Z,100822.31
2019-06-10T08:32:24.247Z,100821.14
2019-06-10T08:37:47.457Z,100814.90
2019-06-10T08:43:13.392Z,100832.02
2019-06-10T08:48:37.558Z,100817.90
2019-06-10T08:54:02.551Z,100813.11
2019-06-10T08:59:27.579Z,100806.73
2019-06-10T09:04:53.598Z,100807.20
2019-06-10T09:10:17.786Z,100806.77
2019-06-10T09:15:44.997Z,100813.31
2019-06-10T09:21:07.259Z,100812.52
2019-06-10T09:26:33.690Z,100807.80
2019-06-10T09:31:57.315Z,100800.67
2019-06-10T09:37:23.334Z,100782.69
2019-06-10T09:42:49.700Z,100773.89
2019-06-10T09:48:13.608Z,100760.88
2019-06-10T09:53:42.776Z,100770.33
2019-06-10T09:59:04.037Z,100772.38
2019-06-10T10:04:28.638Z,100772.30
2019-06-10T10:09:57.003Z,100776.92
2019-06-10T10:15:27.473Z,100775.42
2019-06-10T10:20:48.072Z,100779.22
2019-06-10T10:26:13.196Z,100775.22
2019-06-10T10:31:36.173Z,100776.27
2019-06-10T10:37:02.743Z,100781.97
2019-06-10T10:42:39.146Z,100775.83
2019-06-10T10:47:56.389Z,100770.59
2019-06-10T10:53:18.157Z,100767.15
2019-06-10T10:58:45.341Z,100756.66
2019-06-10T11:04:08.517Z,100757.23
2019-06-10T11:09:33.212Z,100760.34
2019-06-10T11:15:01.912Z,100766.62
2019-06-10T11:20:23.776Z,100771.49
2019-06-10T11:25:48.259Z,100772.24
2019-06-10T11:31:13.866Z,100771.67
2019-06-10T11:36:38.580Z,100755.89
2019-06-10T11:42:03.989Z,100754.77
2019-06-10T11:47:28.701Z,100754.91
2019-06-10T11:52:55.461Z,100762.94
2019-06-10T11:58:17.893Z,100748.77
2019-06-10T12:03:43.417Z,100736.04
2019-06-10T12:09:09.242Z,100727.89
2019-06-10T12:14:33.966Z,100725.13
2019-06-10T12:20:02.543Z,100722.73
2019-06-10T12:25:34.715Z,100713.77
2019-06-10T12:30:50.329Z,100706.63
2019-06-10T12:36:15.129Z,100705.30
2019-06-10T12:41:39.102Z,100706.12
2019-06-10T12:47:07.582Z,100700.63
2019-06-10T12:52:29.699Z,100700.84
2019-06-10T12:57:54.399Z,100684.11
2019-06-10T13:03:19.156Z,100682.06
2019-06-10T13:08:45.085Z,100673.38
2019-06-10T13:14:09.296Z,100663.69
2019-06-10T13:19:35.166Z,100649.34
2019-06-10T13:25:00.644Z,100641.72
2019-06-10T13:30:25.523Z,100637.80
2019-06-10T13:35:49.809Z,100627.66
2019-06-10T13:41:13.892Z,100614.10
2019-06-10T13:46:37.753Z,100612.84
2019-06-10T13:52:09.132Z,100612.58
2019-06-10T13:57:28.909Z,100594.22
2019-06-10T14:02:52.604Z,100584.11
2019-06-10T14:08:17.208Z,100576.56
2019-06-10T14:13:43.134Z,100573.66
2019-06-10T14:19:08.985Z,100573.05
2019-06-10T14:24:33.044Z,100567.31
2019-06-10T14:29:58.175Z,100562.98
2019-06-10T14:35:22.864Z,100552.86
2019-06-10T14:40:47.655Z,100545.26
2019-06-10T14:46:14.346Z,100544.94
2019-06-10T14:51:37.285Z,100535.45
2019-06-10T14:57:02.648Z,100533.91
2019-06-10T15:02:26.540Z,100518.16
2019-06-10T15:07:52.877Z,100524.26
2019-06-10T15:13:16.800Z,100517.22
2019-06-10T15:18:43.192Z,100501.44
2019-06-10T15:24:08.180Z,100503.62
2019-06-10T15:29:32.821Z,100509.05
2019-06-10T15:34:57.989Z,100508.22
2019-06-10T15:40:23.169Z,100505.11
2019-06-10T15:45:47.899Z,100501.20
2019-06-10T15:51:15.340Z,100494.43
2019-06-10T15:56:48.725Z,100485.38
2019-06-10T16:02:04.695Z,100489.66
2019-06-10T16:07:28.295Z,100487.92
2019-06-10T16:12:52.933Z,100479.88
2019-06-10T16:18:18.209Z,100488.25
2019-06-10T16:23:43.016Z,100481.95
2019-06-10T16:29:07.453Z,100486.14
2019-06-10T16:34:32.554Z,100475.59
2019-06-10T16:39:56.530Z,100459.66
2019-06-10T16:45:27.670Z,100443.39
2019-06-10T16:50:47.508Z,100454.10
2019-06-10T16:56:12.180Z,100449.11
2019-06-10T17:01:36.891Z,100448.45
2019-06-10T17:07:02.138Z,100451.93
2019-06-10T17:12:27.595Z,100441.11
2019-06-10T17:17:52.588Z,100434.70
2019-06-10T17:23:27.068Z,100445.46
2019-06-10T17:28:49.242Z,100443.95
2019-06-10T17:34:14.215Z,100452.75
2019-06-10T17:39:38.243Z,100450.64
2019-06-10T17:45:02.512Z,100448.92
2019-06-10T17:50:28.055Z,100452.92
2019-06-10T17:55:52.969Z,100456.41
2019-06-10T18:01:18.163Z,100457.35
2019-06-10T18:06:42.921Z,100445.70
2019-06-10T18:12:07.534Z,100423.86
2019-06-10T18:17:34.854Z,100432.00
2019-06-10T18:22:57.537Z,100438.70
2019-06-10T18:28:22.635Z,100447.98
2019-06-10T18:33:47.570Z,100439.23
2019-06-10T18:39:12.354Z,100424.23
2019-06-10T18:44:37.556Z,100401.58
2019-06-10T18:50:02.516Z,100407.38
2019-06-10T18:55:26.200Z,100406.19
2019-06-10T19:01:00.600Z,100411.41
2019-06-10T19:06:15.685Z,100410.33
2019-06-10T19:11:40.976Z,100402.08
2019-06-10T19:17:06.599Z,100394.70
2019-06-10T19:22:33.097Z,100389.11
2019-06-10T19:27:56.251Z,100402.07
2019-06-10T19:33:20.141Z,100410.97
2019-06-10T19:38:44.880Z,100421.70
2019-06-10T19:44:08.852Z,100436.16
2019-06-10T19:49:34.173Z,100450.74
2019-06-10T19:54:58.004Z,100446.44
2019-06-10T20:00:23.491Z,100464.50
2019-06-10T20:05:48.350Z,100464.50
2019-06-10T20:11:14.327Z,100469.42
2019-06-10T20:16:39.814Z,100456.12
2019-06-10T20:22:04.539Z,100434.75
2019-06-10T20:27:29.130Z,100419.44
2019-06-10T20:32:56.260Z,100423.59
2019-06-10T20:38:19.300Z,100412.82
2019-06-10T20:43:45.620Z,100407.85
2019-06-10T20:49:09.524Z,100398.04
2019-06-10T20:54:34.169Z,100397.00
2019-06-10T20:59:58.745Z,100409.84
2019-06-10T21:05:23.534Z,100396.77
2019-06-10T21:10:49.814Z,100381.52
2019-06-10T21:16:13.455Z,100393.61
2019-06-10T21:21:38.375Z,100365.73
2019-06-10T21:27:02.796Z,100365.73
2019-06-10T21:32:26.495Z,100365.54
2019-06-10T21:37:51.721Z,100364.88
2019-06-10T21:43:15.698Z,100349.25
2019-06-10T21:48:42.943Z,100335.53
2019-06-10T21:54:06.810Z,100309.27
2019-06-10T21:59:32.166Z,100282.77
2019-06-10T22:04:57.284Z,100287.03
2019-06-10T22:10:22.939Z,100308.79
2019-06-10T22:15:48.274Z,100337.18
2019-06-10T22:21:14.734Z,100325.87
2019-06-10T22:26:39.164Z,100349.70
2019-06-10T22:32:03.931Z,100364.38
2019-06-10T22:37:28.366Z,100425.15
2019-06-10T22:42:55.144Z,100437.41
2019-06-10T22:48:18.662Z,100438.03
2019-06-10T22:53:43.535Z,100410.02
2019-06-10T22:59:07.636Z,100363.56
2019-06-10T23:04:33.151Z,100293.83
2019-06-10T23:09:59.067Z,100244.91
2019-06-10T23:15:23.969Z,100306.00
2019-06-10T23:20:49.251Z,100338.53
2019-06-10T23:26:13.146Z,100329.97
2019-06-10T23:31:49.575Z,100346.97
2019-06-10T23:37:03.157Z,100378.08
2019-06-10T23:42:27.248Z,100366.75
2019-06-10T23:47:52.964Z,100346.34
2019-06-10T23:53:16.818Z,100369.09
2019-06-10T23:58:43.178Z,100394.62
